sensor_id;sensor_type;location;lat;lon;timestamp;P1;durP1;ratioP1;P2;durP2;ratioP2
21326;SDS011;10822;51.532;6.770;2023-05-16T00:00:36;5.88;;;2.00;;
21326;SDS011;10822;51.532;6.770;2023-05-16T00:03:03;6.13;;;1.90;;
21326;SDS011;10822;51.532;6.770;2023-05-16T00:05:29;2.85;;;1.80;;
21326;SDS011;10822;51.532;6.770;2023-05-16T00:07:55;5.68;;;2.40;;
21326;SDS011;10822;51.532;6.770;2023-05-16T00:10:21;3.08;;;1.65;;
21326;SDS011;10822;51.532;6.770;2023-05-16T00:12:47;2.28;;;1.38;;
21326;SDS011;10822;51.532;6.770;2023-05-16T00:15:17;3.42;;;1.83;;
21326;SDS011;10822;51.532;6.770;2023-05-16T00:17:44;6.32;;;1.77;;
21326;SDS011;10822;51.532;6.770;2023-05-16T00:20:11;1.77;;;1.30;;
21326;SDS011;10822;51.532;6.770;2023-05-16T00:22:38;3.70;;;1.40;;
21326;SDS011;10822;51.532;6.770;2023-05-16T00:25:04;4.47;;;1.60;;
21326;SDS011;10822;51.532;6.770;2023-05-16T00:27:32;2.20;;;1.33;;
21326;SDS011;10822;51.532;6.770;2023-05-16T00:29:58;6.88;;;1.35;;
21326;SDS011;10822;51.532;6.770;2023-05-16T00:32:24;2.78;;;1.58;;
21326;SDS011;10822;51.532;6.770;2023-05-16T00:34:50;3.35;;;1.50;;
21326;SDS011;10822;51.532;6.770;2023-05-16T00:37:16;4.10;;;1.80;;
21326;SDS011;10822;51.532;6.770;2023-05-16T00:39:43;6.82;;;2.20;;
21326;SDS011;10822;51.532;6.770;2023-05-16T00:42:09;4.35;;;2.20;;
21326;SDS011;10822;51.532;6.770;2023-05-16T00:44:35;6.78;;;2.20;;
21326;SDS011;10822;51.532;6.770;2023-05-16T00:47:01;5.22;;;1.90;;
21326;SDS011;10822;51.532;6.770;2023-05-16T00:49:29;4.75;;;1.80;;
21326;SDS011;10822;51.532;6.770;2023-05-16T00:51:56;4.65;;;1.85;;
21326;SDS011;10822;51.532;6.770;2023-05-16T00:54:23;4.65;;;1.80;;
21326;SDS011;10822;51.532;6.770;2023-05-16T00:56:53;7.00;;;2.25;;
21326;SDS011;10822;51.532;6.770;2023-05-16T00:59:19;2.47;;;1.65;;
21326;SDS011;10822;51.532;6.770;2023-05-16T01:01:46;6.28;;;1.98;;
21326;SDS011;10822;51.532;6.770;2023-05-16T01:04:12;4.50;;;1.75;;
21326;SDS011;10822;51.532;6.770;2023-05-16T01:06:38;6.13;;;1.90;;
21326;SDS011;10822;51.532;6.770;2023-05-16T01:09:06;5.30;;;1.83;;
21326;SDS011;10822;51.532;6.770;2023-05-16T01:24:34;6.63;;;1.60;;
21326;SDS011;10822;51.532;6.770;2023-05-16T01:27:05;10.00;;;2.00;;
21326;SDS011;10822;51.532;6.770;2023-05-16T01:29:32;5.15;;;1.60;;
21326;SDS011;10822;51.532;6.770;2023-05-16T01:31:58;4.65;;;1.50;;
21326;SDS011;10822;51.532;6.770;2023-05-16T01:34:24;6.05;;;1.88;;
21326;SDS011;10822;51.532;6.770;2023-05-16T01:36:59;9.40;;;2.05;;
21326;SDS011;10822;51.532;6.770;2023-05-16T01:42:11;8.70;;;2.40;;
21326;SDS011;10822;51.532;6.770;2023-05-16T01:44:45;6.38;;;2.28;;
21326;SDS011;10822;51.532;6.770;2023-05-16T01:47:16;7.35;;;2.03;;
21326;SDS011;10822;51.532;6.770;2023-05-16T01:49:43;11.73;;;2.65;;
21326;SDS011;10822;51.532;6.770;2023-05-16T01:52:12;7.53;;;2.05;;
21326;SDS011;10822;51.532;6.770;2023-05-16T01:54:42;6.03;;;1.88;;
21326;SDS011;10822;51.532;6.770;2023-05-16T01:57:09;7.43;;;2.03;;
21326;SDS011;10822;51.532;6.770;2023-05-16T01:59:35;6.10;;;1.83;;
21326;SDS011;10822;51.532;6.770;2023-05-16T02:02:01;7.03;;;2.13;;
21326;SDS011;10822;51.532;6.770;2023-05-16T02:04:27;7.97;;;2.22;;
21326;SDS011;10822;51.532;6.770;2023-05-16T02:06:53;8.45;;;2.20;;
21326;SDS011;10822;51.532;6.770;2023-05-16T02:09:19;6.70;;;2.10;;
21326;SDS011;10822;51.532;6.770;2023-05-16T02:11:45;5.50;;;1.90;;
21326;SDS011;10822;51.532;6.770;2023-05-16T02:14:11;7.30;;;2.13;;
21326;SDS011;10822;51.532;6.770;2023-05-16T02:16:38;11.00;;;2.67;;
21326;SDS011;10822;51.532;6.770;2023-05-16T02:19:04;8.30;;;2.53;;
21326;SDS011;10822;51.532;6.770;2023-05-16T02:21:31;9.85;;;2.55;;
21326;SDS011;10822;51.532;6.770;2023-05-16T02:23:57;9.23;;;2.00;;
21326;SDS011;10822;51.532;6.770;2023-05-16T02:26:24;11.88;;;2.50;;
21326;SDS011;10822;51.532;6.770;2023-05-16T02:28:50;12.15;;;2.58;;
21326;SDS011;10822;51.532;6.770;2023-05-16T02:31:26;6.40;;;2.08;;
21326;SDS011;10822;51.532;6.770;2023-05-16T02:33:52;7.60;;;2.03;;
21326;SDS011;10822;51.532;6.770;2023-05-16T02:36:18;7.95;;;2.03;;
21326;SDS011;10822;51.532;6.770;2023-05-16T02:38:45;13.60;;;3.03;;
21326;SDS011;10822;51.532;6.770;2023-05-16T02:41:11;11.90;;;2.42;;
21326;SDS011;10822;51.532;6.770;2023-05-16T02:43:38;9.13;;;2.63;;
21326;SDS011;10822;51.532;6.770;2023-05-16T02:46:18;9.00;;;2.65;;
21326;SDS011;10822;51.532;6.770;2023-05-16T02:48:44;10.30;;;2.80;;
21326;SDS011;10822;51.532;6.770;2023-05-16T02:51:10;8.95;;;2.28;;
21326;SDS011;10822;51.532;6.770;2023-05-16T02:53:38;8.68;;;2.45;;
21326;SDS011;10822;51.532;6.770;2023-05-16T02:56:04;11.23;;;2.42;;
21326;SDS011;10822;51.532;6.770;2023-05-16T02:58:31;12.35;;;2.15;;
21326;SDS011;10822;51.532;6.770;2023-05-16T03:00:57;14.10;;;2.80;;
21326;SDS011;10822;51.532;6.770;2023-05-16T03:03:23;16.70;;;2.35;;
21326;SDS011;10822;51.532;6.770;2023-05-16T03:05:49;8.05;;;2.15;;
21326;SDS011;10822;51.532;6.770;2023-05-16T03:08:15;7.70;;;1.70;;
21326;SDS011;10822;51.532;6.770;2023-05-16T03:10:41;8.23;;;2.08;;
21326;SDS011;10822;51.532;6.770;2023-05-16T03:13:07;9.48;;;2.35;;
21326;SDS011;10822;51.532;6.770;2023-05-16T03:15:36;12.40;;;2.05;;
21326;SDS011;10822;51.532;6.770;2023-05-16T03:18:02;7.45;;;1.75;;
21326;SDS011;10822;51.532;6.770;2023-05-16T03:20:28;11.95;;;2.28;;
21326;SDS011;10822;51.532;6.770;2023-05-16T03:22:54;11.00;;;2.58;;
21326;SDS011;10822;51.532;6.770;2023-05-16T03:25:21;10.85;;;1.85;;
21326;SDS011;10822;51.532;6.770;2023-05-16T03:27:48;15.02;;;2.45;;
21326;SDS011;10822;51.532;6.770;2023-05-16T03:30:14;9.15;;;2.53;;
21326;SDS011;10822;51.532;6.770;2023-05-16T03:32:40;12.45;;;1.80;;
21326;SDS011;10822;51.532;6.770;2023-05-16T03:35:07;10.20;;;2.50;;
21326;SDS011;10822;51.532;6.770;2023-05-16T03:37:33;15.43;;;2.28;;
21326;SDS011;10822;51.532;6.770;2023-05-16T03:40:00;12.50;;;2.63;;
21326;SDS011;10822;51.532;6.770;2023-05-16T03:42:30;10.88;;;2.35;;
21326;SDS011;10822;51.532;6.770;2023-05-16T03:44:56;10.25;;;1.98;;
21326;SDS011;10822;51.532;6.770;2023-05-16T03:47:27;8.20;;;2.47;;
21326;SDS011;10822;51.532;6.770;2023-05-16T03:49:55;12.60;;;2.22;;
21326;SDS011;10822;51.532;6.770;2023-05-16T03:52:21;12.10;;;2.80;;
21326;SDS011;10822;51.532;6.770;2023-05-16T03:54:48;11.30;;;2.70;;
21326;SDS011;10822;51.532;6.770;2023-05-16T03:57:14;11.68;;;2.22;;
21326;SDS011;10822;51.532;6.770;2023-05-16T03:59:40;13.18;;;2.70;;
21326;SDS011;10822;51.532;6.770;2023-05-16T04:02:06;8.68;;;2.20;;
21326;SDS011;10822;51.532;6.770;2023-05-16T04:04:32;10.15;;;2.30;;
21326;SDS011;10822;51.532;6.770;2023-05-16T04:06:59;8.55;;;2.28;;
21326;SDS011;10822;51.532;6.770;2023-05-16T04:09:25;8.05;;;2.42;;
21326;SDS011;10822;51.532;6.770;2023-05-16T04:11:52;8.95;;;2.17;;
21326;SDS011;10822;51.532;6.770;2023-05-16T04:14:20;7.55;;;2.25;;
21326;SDS011;10822;51.532;6.770;2023-05-16T04:16:46;8.13;;;2.28;;
21326;SDS011;10822;51.532;6.770;2023-05-16T04:19:12;7.97;;;1.75;;
21326;SDS011;10822;51.532;6.770;2023-05-16T04:21:38;10.30;;;1.85;;
21326;SDS011;10822;51.532;6.770;2023-05-16T04:24:04;10.80;;;2.28;;
21326;SDS011;10822;51.532;6.770;2023-05-16T04:26:30;7.97;;;1.73;;
21326;SDS011;10822;51.532;6.770;2023-05-16T04:28:56;9.90;;;2.33;;
21326;SDS011;10822;51.532;6.770;2023-05-16T04:31:24;9.10;;;1.95;;
21326;SDS011;10822;51.532;6.770;2023-05-16T04:33:50;9.27;;;2.00;;
21326;SDS011;10822;51.532;6.770;2023-05-16T04:36:16;7.78;;;2.35;;
21326;SDS011;10822;51.532;6.770;2023-05-16T04:38:42;8.55;;;1.95;;
21326;SDS011;10822;51.532;6.770;2023-05-16T04:41:10;9.05;;;2.05;;
21326;SDS011;10822;51.532;6.770;2023-05-16T04:43:36;9.65;;;2.67;;
21326;SDS011;10822;51.532;6.770;2023-05-16T04:46:02;10.73;;;2.30;;
21326;SDS011;10822;51.532;6.770;2023-05-16T04:48:28;7.95;;;2.15;;
21326;SDS011;10822;51.532;6.770;2023-05-16T04:50:54;9.93;;;2.10;;
21326;SDS011;10822;51.532;6.770;2023-05-16T04:53:21;11.50;;;2.60;;
21326;SDS011;10822;51.532;6.770;2023-05-16T04:55:47;10.93;;;2.15;;
21326;SDS011;10822;51.532;6.770;2023-05-16T04:58:13;9.68;;;2.58;;
21326;SDS011;10822;51.532;6.770;2023-05-16T05:00:40;10.20;;;1.70;;
21326;SDS011;10822;51.532;6.770;2023-05-16T05:03:06;6.75;;;1.98;;
21326;SDS011;10822;51.532;6.770;2023-05-16T05:05:32;9.15;;;1.80;;
21326;SDS011;10822;51.532;6.770;2023-05-16T05:07:58;8.65;;;1.65;;
21326;SDS011;10822;51.532;6.770;2023-05-16T05:10:25;10.98;;;2.08;;
21326;SDS011;10822;51.532;6.770;2023-05-16T05:12:55;10.02;;;1.98;;
21326;SDS011;10822;51.532;6.770;2023-05-16T05:15:21;14.40;;;2.00;;
21326;SDS011;10822;51.532;6.770;2023-05-16T05:17:47;7.20;;;1.65;;
21326;SDS011;10822;51.532;6.770;2023-05-16T05:20:13;8.27;;;1.70;;
21326;SDS011;10822;51.532;6.770;2023-05-16T05:22:39;7.05;;;1.83;;
21326;SDS011;10822;51.532;6.770;2023-05-16T05:25:05;11.23;;;1.73;;
21326;SDS011;10822;51.532;6.770;2023-05-16T05:27:31;10.55;;;2.25;;
21326;SDS011;10822;51.532;6.770;2023-05-16T05:29:57;10.43;;;1.67;;
21326;SDS011;10822;51.532;6.770;2023-05-16T05:32:23;9.80;;;2.00;;
21326;SDS011;10822;51.532;6.770;2023-05-16T05:34:49;10.85;;;1.63;;
21326;SDS011;10822;51.532;6.770;2023-05-16T05:37:16;10.75;;;1.98;;
21326;SDS011;10822;51.532;6.770;2023-05-16T05:39:42;11.85;;;1.92;;
21326;SDS011;10822;51.532;6.770;2023-05-16T05:42:08;8.15;;;1.95;;
21326;SDS011;10822;51.532;6.770;2023-05-16T05:44:34;5.88;;;1.92;;
21326;SDS011;10822;51.532;6.770;2023-05-16T05:47:01;8.13;;;2.00;;
21326;SDS011;10822;51.532;6.770;2023-05-16T05:49:27;7.57;;;2.25;;
21326;SDS011;10822;51.532;6.770;2023-05-16T05:51:53;9.25;;;1.70;;
21326;SDS011;10822;51.532;6.770;2023-05-16T05:54:19;7.65;;;2.33;;
21326;SDS011;10822;51.532;6.770;2023-05-16T05:56:45;9.00;;;1.50;;
21326;SDS011;10822;51.532;6.770;2023-05-16T05:59:11;8.30;;;1.58;;
21326;SDS011;10822;51.532;6.770;2023-05-16T06:01:39;6.10;;;1.70;;
21326;SDS011;10822;51.532;6.770;2023-05-16T06:04:05;8.15;;;1.92;;
21326;SDS011;10822;51.532;6.770;2023-05-16T06:06:31;4.85;;;1.38;;
21326;SDS011;10822;51.532;6.770;2023-05-16T06:08:57;9.27;;;1.98;;
21326;SDS011;10822;51.532;6.770;2023-05-16T06:11:23;8.75;;;1.98;;
21326;SDS011;10822;51.532;6.770;2023-05-16T06:13:52;8.60;;;1.70;;
21326;SDS011;10822;51.532;6.770;2023-05-16T06:16:18;9.60;;;1.70;;
21326;SDS011;10822;51.532;6.770;2023-05-16T06:18:49;5.40;;;1.73;;
21326;SDS011;10822;51.532;6.770;2023-05-16T06:21:15;11.63;;;1.67;;
21326;SDS011;10822;51.532;6.770;2023-05-16T06:23:41;7.03;;;1.55;;
21326;SDS011;10822;51.532;6.770;2023-05-16T06:26:07;6.25;;;1.42;;
21326;SDS011;10822;51.532;6.770;2023-05-16T06:28:33;6.25;;;1.52;;
21326;SDS011;10822;51.532;6.770;2023-05-16T06:30:59;9.90;;;1.90;;
21326;SDS011;10822;51.532;6.770;2023-05-16T06:33:25;8.40;;;2.03;;
21326;SDS011;10822;51.532;6.770;2023-05-16T06:35:51;8.00;;;1.38;;
21326;SDS011;10822;51.532;6.770;2023-05-16T06:38:17;6.93;;;1.38;;
21326;SDS011;10822;51.532;6.770;2023-05-16T06:40:46;5.53;;;1.20;;
21326;SDS011;10822;51.532;6.770;2023-05-16T06:43:13;7.72;;;1.70;;
21326;SDS011;10822;51.532;6.770;2023-05-16T06:45:39;6.35;;;1.50;;
21326;SDS011;10822;51.532;6.770;2023-05-16T06:48:05;9.32;;;1.70;;
21326;SDS011;10822;51.532;6.770;2023-05-16T06:50:32;5.72;;;1.20;;
21326;SDS011;10822;51.532;6.770;2023-05-16T06:52:59;6.07;;;1.33;;
21326;SDS011;10822;51.532;6.770;2023-05-16T06:55:25;8.07;;;1.70;;
21326;SDS011;10822;51.532;6.770;2023-05-16T06:57:51;6.05;;;1.27;;
21326;SDS011;10822;51.532;6.770;2023-05-16T07:00:17;7.57;;;1.35;;
21326;SDS011;10822;51.532;6.770;2023-05-16T07:02:43;5.97;;;1.35;;
21326;SDS011;10822;51.532;6.770;2023-05-16T07:05:09;6.32;;;1.48;;
21326;SDS011;10822;51.532;6.770;2023-05-16T07:07:35;5.68;;;1.27;;
21326;SDS011;10822;51.532;6.770;2023-05-16T07:10:02;5.28;;;1.42;;
21326;SDS011;10822;51.532;6.770;2023-05-16T07:12:28;4.72;;;1.30;;
21326;SDS011;10822;51.532;6.770;2023-05-16T07:14:54;4.85;;;1.30;;
21326;SDS011;10822;51.532;6.770;2023-05-16T07:17:20;7.30;;;1.35;;
21326;SDS011;10822;51.532;6.770;2023-05-16T07:19:46;7.72;;;1.25;;
21326;SDS011;10822;51.532;6.770;2023-05-16T07:22:12;8.43;;;1.40;;
21326;SDS011;10822;51.532;6.770;2023-05-16T07:24:38;7.88;;;1.05;;
21326;SDS011;10822;51.532;6.770;2023-05-16T07:27:04;5.97;;;1.23;;
21326;SDS011;10822;51.532;6.770;2023-05-16T07:29:30;5.30;;;0.98;;
21326;SDS011;10822;51.532;6.770;2023-05-16T07:31:57;5.53;;;1.50;;
21326;SDS011;10822;51.532;6.770;2023-05-16T07:34:23;5.18;;;1.05;;
21326;SDS011;10822;51.532;6.770;2023-05-16T07:36:49;7.88;;;1.40;;
21326;SDS011;10822;51.532;6.770;2023-05-16T07:39:15;5.53;;;1.30;;
21326;SDS011;10822;51.532;6.770;2023-05-16T07:41:41;8.35;;;1.35;;
21326;SDS011;10822;51.532;6.770;2023-05-16T07:44:07;3.90;;;0.90;;
21326;SDS011;10822;51.532;6.770;2023-05-16T07:46:33;6.65;;;1.30;;
21326;SDS011;10822;51.532;6.770;2023-05-16T07:48:59;6.60;;;1.17;;
21326;SDS011;10822;51.532;6.770;2023-05-16T07:51:25;5.90;;;1.40;;
21326;SDS011;10822;51.532;6.770;2023-05-16T07:53:51;5.35;;;0.90;;
21326;SDS011;10822;51.532;6.770;2023-05-16T07:56:17;5.28;;;0.90;;
21326;SDS011;10822;51.532;6.770;2023-05-16T07:58:43;4.50;;;0.90;;
21326;SDS011;10822;51.532;6.770;2023-05-16T08:01:09;5.20;;;0.82;;
21326;SDS011;10822;51.532;6.770;2023-05-16T08:03:36;4.53;;;1.30;;
21326;SDS011;10822;51.532;6.770;2023-05-16T08:06:02;6.22;;;1.40;;
21326;SDS011;10822;51.532;6.770;2023-05-16T08:08:28;4.72;;;1.10;;
21326;SDS011;10822;51.532;6.770;2023-05-16T08:10:54;6.13;;;1.27;;
21326;SDS011;10822;51.532;6.770;2023-05-16T08:13:20;5.45;;;0.90;;
21326;SDS011;10822;51.532;6.770;2023-05-16T08:15:46;3.72;;;1.20;;
21326;SDS011;10822;51.532;6.770;2023-05-16T08:18:13;5.97;;;1.15;;
21326;SDS011;10822;51.532;6.770;2023-05-16T08:20:40;4.43;;;0.85;;
21326;SDS011;10822;51.532;6.770;2023-05-16T08:23:06;5.32;;;1.00;;
21326;SDS011;10822;51.532;6.770;2023-05-16T08:25:33;9.07;;;1.15;;
21326;SDS011;10822;51.532;6.770;2023-05-16T08:27:59;3.92;;;1.00;;
21326;SDS011;10822;51.532;6.770;2023-05-16T08:30:28;4.70;;;0.90;;
21326;SDS011;10822;51.532;6.770;2023-05-16T08:32:56;5.25;;;1.30;;
21326;SDS011;10822;51.532;6.770;2023-05-16T08:35:22;3.75;;;0.95;;
21326;SDS011;10822;51.532;6.770;2023-05-16T08:37:48;4.80;;;1.00;;
21326;SDS011;10822;51.532;6.770;2023-05-16T08:40:16;6.25;;;1.00;;
21326;SDS011;10822;51.532;6.770;2023-05-16T08:42:43;4.15;;;1.05;;
21326;SDS011;10822;51.532;6.770;2023-05-16T08:45:09;8.70;;;1.13;;
21326;SDS011;10822;51.532;6.770;2023-05-16T08:47:35;3.97;;;0.80;;
21326;SDS011;10822;51.532;6.770;2023-05-16T08:50:05;3.60;;;0.75;;
21326;SDS011;10822;51.532;6.770;2023-05-16T08:52:33;5.22;;;1.00;;
21326;SDS011;10822;51.532;6.770;2023-05-16T08:55:02;3.25;;;0.82;;
21326;SDS011;10822;51.532;6.770;2023-05-16T08:57:33;4.72;;;1.00;;
21326;SDS011;10822;51.532;6.770;2023-05-16T09:00:00;5.40;;;0.93;;
21326;SDS011;10822;51.532;6.770;2023-05-16T09:02:29;3.00;;;1.00;;
21326;SDS011;10822;51.532;6.770;2023-05-16T09:04:55;3.28;;;1.00;;
21326;SDS011;10822;51.532;6.770;2023-05-16T09:07:21;6.18;;;1.10;;
21326;SDS011;10822;51.532;6.770;2023-05-16T09:09:48;8.07;;;2.80;;
21326;SDS011;10822;51.532;6.770;2023-05-16T09:12:14;4.78;;;1.20;;
21326;SDS011;10822;51.532;6.770;2023-05-16T09:14:41;3.30;;;1.13;;
21326;SDS011;10822;51.532;6.770;2023-05-16T09:17:08;5.80;;;1.08;;
21326;SDS011;10822;51.532;6.770;2023-05-16T09:19:38;4.30;;;1.10;;
21326;SDS011;10822;51.532;6.770;2023-05-16T09:22:08;3.88;;;0.90;;
21326;SDS011;10822;51.532;6.770;2023-05-16T09:24:38;3.92;;;1.15;;
21326;SDS011;10822;51.532;6.770;2023-05-16T09:27:07;6.97;;;1.30;;
21326;SDS011;10822;51.532;6.770;2023-05-16T09:29:33;6.18;;;0.80;;
21326;SDS011;10822;51.532;6.770;2023-05-16T09:32:12;6.38;;;1.50;;
21326;SDS011;10822;51.532;6.770;2023-05-16T09:34:42;2.25;;;0.90;;
21326;SDS011;10822;51.532;6.770;2023-05-16T09:37:09;4.22;;;1.30;;
21326;SDS011;10822;51.532;6.770;2023-05-16T09:39:37;5.50;;;1.38;;
21326;SDS011;10822;51.532;6.770;2023-05-16T09:42:09;6.32;;;1.10;;
21326;SDS011;10822;51.532;6.770;2023-05-16T09:44:36;5.63;;;1.55;;
21326;SDS011;10822;51.532;6.770;2023-05-16T09:47:02;5.20;;;1.58;;
21326;SDS011;10822;51.532;6.770;2023-05-16T09:49:30;2.22;;;0.80;;
21326;SDS011;10822;51.532;6.770;2023-05-16T09:52:03;4.80;;;1.10;;
21326;SDS011;10822;51.532;6.770;2023-05-16T09:54:30;7.20;;;1.30;;
21326;SDS011;10822;51.532;6.770;2023-05-16T09:56:56;6.00;;;1.23;;
21326;SDS011;10822;51.532;6.770;2023-05-16T09:59:22;4.95;;;1.23;;
21326;SDS011;10822;51.532;6.770;2023-05-16T10:01:48;5.47;;;1.17;;
21326;SDS011;10822;51.532;6.770;2023-05-16T10:04:15;8.68;;;1.38;;
21326;SDS011;10822;51.532;6.770;2023-05-16T10:06:41;4.97;;;1.27;;
21326;SDS011;10822;51.532;6.770;2023-05-16T10:09:10;8.15;;;1.40;;
21326;SDS011;10822;51.532;6.770;2023-05-16T10:11:37;11.88;;;2.22;;
21326;SDS011;10822;51.532;6.770;2023-05-16T10:14:04;8.35;;;1.30;;
21326;SDS011;10822;51.532;6.770;2023-05-16T10:16:31;4.13;;;1.08;;
21326;SDS011;10822;51.532;6.770;2023-05-16T10:18:58;5.03;;;1.00;;
21326;SDS011;10822;51.532;6.770;2023-05-16T10:21:25;5.93;;;1.40;;
21326;SDS011;10822;51.532;6.770;2023-05-16T10:23:53;4.10;;;1.20;;
21326;SDS011;10822;51.532;6.770;2023-05-16T10:26:21;4.07;;;1.15;;
21326;SDS011;10822;51.532;6.770;2023-05-16T10:28:47;3.53;;;0.70;;
21326;SDS011;10822;51.532;6.770;2023-05-16T10:31:14;3.15;;;0.90;;
21326;SDS011;10822;51.532;6.770;2023-05-16T10:33:40;2.53;;;0.60;;
21326;SDS011;10822;51.532;6.770;2023-05-16T10:36:07;2.28;;;0.60;;
21326;SDS011;10822;51.532;6.770;2023-05-16T10:38:33;5.00;;;0.73;;
21326;SDS011;10822;51.532;6.770;2023-05-16T10:41:00;4.53;;;0.88;;
21326;SDS011;10822;51.532;6.770;2023-05-16T10:43:27;2.22;;;0.57;;
21326;SDS011;10822;51.532;6.770;2023-05-16T10:45:58;2.30;;;0.50;;
21326;SDS011;10822;51.532;6.770;2023-05-16T10:48:28;3.47;;;0.80;;
21326;SDS011;10822;51.532;6.770;2023-05-16T10:50:54;2.80;;;0.70;;
21326;SDS011;10822;51.532;6.770;2023-05-16T10:53:20;2.00;;;0.80;;
21326;SDS011;10822;51.532;6.770;2023-05-16T10:56:04;2.40;;;0.65;;
21326;SDS011;10822;51.532;6.770;2023-05-16T11:01:16;1.90;;;0.52;;
21326;SDS011;10822;51.532;6.770;2023-05-16T11:06:33;3.78;;;0.70;;
21326;SDS011;10822;51.532;6.770;2023-05-16T11:14:04;1.08;;;0.60;;
21326;SDS011;10822;51.532;6.770;2023-05-16T11:16:32;1.65;;;0.50;;
21326;SDS011;10822;51.532;6.770;2023-05-16T11:19:05;4.25;;;0.90;;
21326;SDS011;10822;51.532;6.770;2023-05-16T11:24:29;2.20;;;0.70;;
21326;SDS011;10822;51.532;6.770;2023-05-16T11:26:56;1.83;;;0.95;;
21326;SDS011;10822;51.532;6.770;2023-05-16T11:29:22;4.45;;;0.88;;
21326;SDS011;10822;51.532;6.770;2023-05-16T11:31:49;1.92;;;0.70;;
21326;SDS011;10822;51.532;6.770;2023-05-16T11:34:15;2.25;;;0.90;;
21326;SDS011;10822;51.532;6.770;2023-05-16T11:36:42;2.33;;;0.95;;
21326;SDS011;10822;51.532;6.770;2023-05-16T11:39:08;2.55;;;0.75;;
21326;SDS011;10822;51.532;6.770;2023-05-16T11:41:34;3.42;;;0.70;;
21326;SDS011;10822;51.532;6.770;2023-05-16T11:44:00;2.40;;;0.85;;
21326;SDS011;10822;51.532;6.770;2023-05-16T11:46:26;2.13;;;0.77;;
21326;SDS011;10822;51.532;6.770;2023-05-16T11:48:52;3.35;;;1.13;;
21326;SDS011;10822;51.532;6.770;2023-05-16T11:51:18;3.20;;;0.73;;
21326;SDS011;10822;51.532;6.770;2023-05-16T11:53:48;1.75;;;0.70;;
21326;SDS011;10822;51.532;6.770;2023-05-16T11:56:14;2.15;;;0.90;;
21326;SDS011;10822;51.532;6.770;2023-05-16T11:58:41;2.75;;;0.57;;
21326;SDS011;10822;51.532;6.770;2023-05-16T12:01:08;1.88;;;0.68;;
21326;SDS011;10822;51.532;6.770;2023-05-16T12:03:34;2.33;;;0.40;;
21326;SDS011;10822;51.532;6.770;2023-05-16T12:06:00;2.30;;;0.77;;
21326;SDS011;10822;51.532;6.770;2023-05-16T12:08:27;1.65;;;0.65;;
21326;SDS011;10822;51.532;6.770;2023-05-16T12:10:53;1.73;;;0.50;;
21326;SDS011;10822;51.532;6.770;2023-05-16T12:13:19;3.83;;;0.68;;
21326;SDS011;10822;51.532;6.770;2023-05-16T12:15:46;1.35;;;0.60;;
21326;SDS011;10822;51.532;6.770;2023-05-16T12:18:12;2.10;;;0.90;;
21326;SDS011;10822;51.532;6.770;2023-05-16T12:20:38;2.80;;;0.75;;
21326;SDS011;10822;51.532;6.770;2023-05-16T12:23:05;1.55;;;0.47;;
21326;SDS011;10822;51.532;6.770;2023-05-16T12:25:35;3.00;;;1.00;;
21326;SDS011;10822;51.532;6.770;2023-05-16T12:28:05;1.95;;;0.60;;
21326;SDS011;10822;51.532;6.770;2023-05-16T12:30:32;3.22;;;0.40;;
21326;SDS011;10822;51.532;6.770;2023-05-16T12:33:02;1.30;;;0.40;;
21326;SDS011;10822;51.532;6.770;2023-05-16T12:35:29;2.78;;;0.70;;
21326;SDS011;10822;51.532;6.770;2023-05-16T12:37:56;3.10;;;0.80;;
21326;SDS011;10822;51.532;6.770;2023-05-16T12:40:22;2.20;;;0.43;;
21326;SDS011;10822;51.532;6.770;2023-05-16T12:42:48;1.73;;;0.68;;
21326;SDS011;10822;51.532;6.770;2023-05-16T12:45:15;2.65;;;0.60;;
21326;SDS011;10822;51.532;6.770;2023-05-16T12:47:42;3.42;;;0.90;;
21326;SDS011;10822;51.532;6.770;2023-05-16T12:50:11;2.75;;;0.80;;
21326;SDS011;10822;51.532;6.770;2023-05-16T12:52:47;3.28;;;0.57;;
21326;SDS011;10822;51.532;6.770;2023-05-16T12:55:14;1.88;;;0.68;;
21326;SDS011;10822;51.532;6.770;2023-05-16T12:57:41;1.73;;;0.45;;
21326;SDS011;10822;51.532;6.770;2023-05-16T13:00:08;1.70;;;0.50;;
21326;SDS011;10822;51.532;6.770;2023-05-16T13:02:35;3.00;;;0.80;;
21326;SDS011;10822;51.532;6.770;2023-05-16T13:05:03;3.40;;;0.90;;
21326;SDS011;10822;51.532;6.770;2023-05-16T13:07:33;5.95;;;0.80;;
21326;SDS011;10822;51.532;6.770;2023-05-16T13:09:59;6.03;;;1.00;;
21326;SDS011;10822;51.532;6.770;2023-05-16T13:12:24;3.65;;;0.80;;
21326;SDS011;10822;51.532;6.770;2023-05-16T13:14:51;1.95;;;0.90;;
21326;SDS011;10822;51.532;6.770;2023-05-16T13:17:17;1.85;;;0.73;;
21326;SDS011;10822;51.532;6.770;2023-05-16T13:19:44;1.05;;;0.47;;
21326;SDS011;10822;51.532;6.770;2023-05-16T13:22:10;4.32;;;0.77;;
21326;SDS011;10822;51.532;6.770;2023-05-16T13:24:36;2.80;;;0.80;;
21326;SDS011;10822;51.532;6.770;2023-05-16T13:27:02;2.92;;;0.90;;
21326;SDS011;10822;51.532;6.770;2023-05-16T13:29:29;2.70;;;0.77;;
21326;SDS011;10822;51.532;6.770;2023-05-16T13:31:57;2.60;;;0.88;;
21326;SDS011;10822;51.532;6.770;2023-05-16T13:34:23;5.30;;;0.93;;
21326;SDS011;10822;51.532;6.770;2023-05-16T13:36:49;4.43;;;0.90;;
21326;SDS011;10822;51.532;6.770;2023-05-16T13:39:15;5.97;;;0.82;;
21326;SDS011;10822;51.532;6.770;2023-05-16T13:41:42;2.85;;;0.90;;
21326;SDS011;10822;51.532;6.770;2023-05-16T13:44:08;3.50;;;0.90;;
21326;SDS011;10822;51.532;6.770;2023-05-16T13:46:34;5.90;;;1.08;;
21326;SDS011;10822;51.532;6.770;2023-05-16T13:49:00;3.60;;;0.80;;
21326;SDS011;10822;51.532;6.770;2023-05-16T13:51:26;4.13;;;1.10;;
21326;SDS011;10822;51.532;6.770;2023-05-16T13:53:52;2.22;;;0.90;;
21326;SDS011;10822;51.532;6.770;2023-05-16T13:56:19;1.67;;;0.65;;
21326;SDS011;10822;51.532;6.770;2023-05-16T13:58:45;2.70;;;0.70;;
21326;SDS011;10822;51.532;6.770;2023-05-16T14:01:11;3.00;;;0.90;;
21326;SDS011;10822;51.532;6.770;2023-05-16T14:03:38;3.47;;;0.80;;
21326;SDS011;10822;51.532;6.770;2023-05-16T14:06:04;2.38;;;0.90;;
21326;SDS011;10822;51.532;6.770;2023-05-16T14:08:30;6.38;;;1.23;;
21326;SDS011;10822;51.532;6.770;2023-05-16T14:10:56;3.67;;;0.95;;
21326;SDS011;10822;51.532;6.770;2023-05-16T14:13:22;2.60;;;1.05;;
21326;SDS011;10822;51.532;6.770;2023-05-16T14:15:50;1.17;;;0.80;;
21326;SDS011;10822;51.532;6.770;2023-05-16T14:18:16;4.30;;;1.00;;
21326;SDS011;10822;51.532;6.770;2023-05-16T14:20:42;2.90;;;0.80;;
21326;SDS011;10822;51.532;6.770;2023-05-16T14:23:08;3.15;;;1.00;;
21326;SDS011;10822;51.532;6.770;2023-05-16T14:25:34;1.75;;;0.77;;
21326;SDS011;10822;51.532;6.770;2023-05-16T14:28:00;2.63;;;1.10;;
21326;SDS011;10822;51.532;6.770;2023-05-16T14:30:26;4.50;;;1.10;;
21326;SDS011;10822;51.532;6.770;2023-05-16T14:32:53;3.53;;;1.05;;
21326;SDS011;10822;51.532;6.770;2023-05-16T14:35:20;2.63;;;0.82;;
21326;SDS011;10822;51.532;6.770;2023-05-16T14:37:46;3.97;;;1.13;;
21326;SDS011;10822;51.532;6.770;2023-05-16T14:40:12;4.13;;;0.93;;
21326;SDS011;10822;51.532;6.770;2023-05-16T14:42:38;3.35;;;1.42;;
21326;SDS011;10822;51.532;6.770;2023-05-16T14:45:04;4.30;;;1.00;;
21326;SDS011;10822;51.532;6.770;2023-05-16T14:47:30;6.40;;;1.48;;
21326;SDS011;10822;51.532;6.770;2023-05-16T14:49:56;3.10;;;1.00;;
21326;SDS011;10822;51.532;6.770;2023-05-16T14:52:23;2.47;;;1.33;;
21326;SDS011;10822;51.532;6.770;2023-05-16T14:54:49;3.70;;;1.38;;
21326;SDS011;10822;51.532;6.770;2023-05-16T14:57:15;3.05;;;1.00;;
21326;SDS011;10822;51.532;6.770;2023-05-16T14:59:41;2.92;;;0.93;;
21326;SDS011;10822;51.532;6.770;2023-05-16T15:02:08;2.80;;;1.15;;
21326;SDS011;10822;51.532;6.770;2023-05-16T15:04:34;4.72;;;1.30;;
21326;SDS011;10822;51.532;6.770;2023-05-16T15:07:00;4.70;;;1.40;;
21326;SDS011;10822;51.532;6.770;2023-05-16T15:09:26;2.90;;;1.00;;
21326;SDS011;10822;51.532;6.770;2023-05-16T15:11:52;2.50;;;1.20;;